sensor_id;sensor_type;location;lat;lon;timestamp;temperature;humidity
26595;DHT22;14238;49.496;8.154;2023-05-14T00:00:39;10.60;99.90
26595;DHT22;14238;49.496;8.154;2023-05-14T00:03:05;10.60;99.90
26595;DHT22;14238;49.496;8.154;2023-05-14T00:05:30;10.70;99.90
26595;DHT22;14238;49.496;8.154;2023-05-14T00:07:56;10.70;99.90
26595;DHT22;14238;49.496;8.154;2023-05-14T00:10:21;10.80;99.90
26595;DHT22;14238;49.496;8.154;2023-05-14T00:12:47;10.80;99.90
26595;DHT22;14238;49.496;8.154;2023-05-14T00:15:12;10.80;99.90
26595;DHT22;14238;49.496;8.154;2023-05-14T00:17:38;10.80;99.90
26595;DHT22;14238;49.496;8.154;2023-05-14T00:20:04;10.90;99.90
26595;DHT22;14238;49.496;8.154;2023-05-14T00:22:32;11.00;99.90
26595;DHT22;14238;49.496;8.154;2023-05-14T00:24:58;11.10;99.90
26595;DHT22;14238;49.496;8.154;2023-05-14T00:27:23;11.10;99.90
26595;DHT22;14238;49.496;8.154;2023-05-14T00:29:49;11.00;99.90
26595;DHT22;14238;49.496;8.154;2023-05-14T00:32:14;11.00;99.90
26595;DHT22;14238;49.496;8.154;2023-05-14T00:34:40;11.00;99.90
26595;DHT22;14238;49.496;8.154;2023-05-14T00:37:06;11.10;99.90
26595;DHT22;14238;49.496;8.154;2023-05-14T00:39:31;11.20;99.90
26595;DHT22;14238;49.496;8.154;2023-05-14T00:41:57;11.30;99.90
26595;DHT22;14238;49.496;8.154;2023-05-14T00:44:22;11.30;99.90
26595;DHT22;14238;49.496;8.154;2023-05-14T00:46:48;11.30;99.90
26595;DHT22;14238;49.496;8.154;2023-05-14T00:49:14;11.40;99.90
26595;DHT22;14238;49.496;8.154;2023-05-14T00:51:40;11.40;99.90
26595;DHT22;14238;49.496;8.154;2023-05-14T00:54:06;11.40;99.90
26595;DHT22;14238;49.496;8.154;2023-05-14T00:56:33;11.40;99.90
26595;DHT22;14238;49.496;8.154;2023-05-14T00:58:59;11.50;99.90
26595;DHT22;14238;49.496;8.154;2023-05-14T01:01:25;11.50;99.90
26595;DHT22;14238;49.496;8.154;2023-05-14T01:03:53;11.50;99.90
26595;DHT22;14238;49.496;8.154;2023-05-14T01:06:46;11.50;99.90
26595;DHT22;14238;49.496;8.154;2023-05-14T01:12:46;11.50;99.90
26595;DHT22;14238;49.496;8.154;2023-05-14T01:15:24;11.50;99.90
26595;DHT22;14238;49.496;8.154;2023-05-14T01:17:58;11.50;99.90
26595;DHT22;14238;49.496;8.154;2023-05-14T01:20:25;11.50;99.90
26595;DHT22;14238;49.496;8.154;2023-05-14T01:22:51;11.40;99.90
26595;DHT22;14238;49.496;8.154;2023-05-14T01:25:17;11.30;99.90
26595;DHT22;14238;49.496;8.154;2023-05-14T01:30:35;11.10;99.90
26595;DHT22;14238;49.496;8.154;2023-05-14T01:33:04;11.10;99.90
26595;DHT22;14238;49.496;8.154;2023-05-14T01:35:31;11.10;99.90
26595;DHT22;14238;49.496;8.154;2023-05-14T01:38:02;11.00;99.90
26595;DHT22;14238;49.496;8.154;2023-05-14T01:40:29;11.00;99.90
26595;DHT22;14238;49.496;8.154;2023-05-14T01:42:56;10.90;99.90
26595;DHT22;14238;49.496;8.154;2023-05-14T01:45:22;10.90;99.90
26595;DHT22;14238;49.496;8.154;2023-05-14T01:47:49;10.80;99.90
26595;DHT22;14238;49.496;8.154;2023-05-14T01:50:14;10.80;99.90
26595;DHT22;14238;49.496;8.154;2023-05-14T01:52:40;10.70;99.90
26595;DHT22;14238;49.496;8.154;2023-05-14T01:55:06;10.70;99.90
26595;DHT22;14238;49.496;8.154;2023-05-14T01:57:31;10.80;99.90
26595;DHT22;14238;49.496;8.154;2023-05-14T01:59:57;10.80;99.90
26595;DHT22;14238;49.496;8.154;2023-05-14T02:02:23;10.90;99.90
26595;DHT22;14238;49.496;8.154;2023-05-14T02:04:48;11.00;99.90
26595;DHT22;14238;49.496;8.154;2023-05-14T02:07:14;11.00;99.90
26595;DHT22;14238;49.496;8.154;2023-05-14T02:09:40;11.10;99.90
26595;DHT22;14238;49.496;8.154;2023-05-14T02:12:07;11.00;99.90
26595;DHT22;14238;49.496;8.154;2023-05-14T02:14:33;11.00;99.90
26595;DHT22;14238;49.496;8.154;2023-05-14T02:16:58;10.90;99.90
26595;DHT22;14238;49.496;8.154;2023-05-14T02:19:24;10.70;99.90
26595;DHT22;14238;49.496;8.154;2023-05-14T02:21:49;10.70;99.90
26595;DHT22;14238;49.496;8.154;2023-05-14T02:24:15;10.50;99.90
26595;DHT22;14238;49.496;8.154;2023-05-14T02:26:40;10.40;99.90
26595;DHT22;14238;49.496;8.154;2023-05-14T02:29:06;10.40;99.90
26595;DHT22;14238;49.496;8.154;2023-05-14T02:31:32;10.40;99.90
26595;DHT22;14238;49.496;8.154;2023-05-14T02:33:59;10.40;99.90
26595;DHT22;14238;49.496;8.154;2023-05-14T02:36:25;10.30;99.90
26595;DHT22;14238;49.496;8.154;2023-05-14T02:38:50;10.30;99.90
26595;DHT22;14238;49.496;8.154;2023-05-14T02:41:16;10.20;99.90
26595;DHT22;14238;49.496;8.154;2023-05-14T02:43:41;10.10;99.90
26595;DHT22;14238;49.496;8.154;2023-05-14T02:46:07;10.00;99.90
26595;DHT22;14238;49.496;8.154;2023-05-14T02:48:32;10.20;99.90
26595;DHT22;14238;49.496;8.154;2023-05-14T02:50:58;10.10;99.90
26595;DHT22;14238;49.496;8.154;2023-05-14T02:53:23;10.10;99.90
26595;DHT22;14238;49.496;8.154;2023-05-14T02:55:49;10.20;99.90
26595;DHT22;14238;49.496;8.154;2023-05-14T02:58:14;10.00;99.90
26595;DHT22;14238;49.496;8.154;2023-05-14T03:00:40;10.10;99.90
26595;DHT22;14238;49.496;8.154;2023-05-14T03:03:05;10.00;99.90
26595;DHT22;14238;49.496;8.154;2023-05-14T03:05:31;9.90;99.90
26595;DHT22;14238;49.496;8.154;2023-05-14T03:07:57;10.00;99.90
26595;DHT22;14238;49.496;8.154;2023-05-14T03:10:22;10.00;99.90
26595;DHT22;14238;49.496;8.154;2023-05-14T03:12:48;10.00;99.90
26595;DHT22;14238;49.496;8.154;2023-05-14T03:15:13;10.00;99.90
26595;DHT22;14238;49.496;8.154;2023-05-14T03:17:39;10.00;99.90
26595;DHT22;14238;49.496;8.154;2023-05-14T03:20:05;10.00;99.90
26595;DHT22;14238;49.496;8.154;2023-05-14T03:22:31;10.10;99.90
26595;DHT22;14238;49.496;8.154;2023-05-14T03:24:56;10.10;99.90
26595;DHT22;14238;49.496;8.154;2023-05-14T03:27:22;10.10;99.90
26595;DHT22;14238;49.496;8.154;2023-05-14T03:29:47;10.10;99.90
26595;DHT22;14238;49.496;8.154;2023-05-14T03:32:13;10.20;99.90
26595;DHT22;14238;49.496;8.154;2023-05-14T03:34:39;10.30;99.90
26595;DHT22;14238;49.496;8.154;2023-05-14T03:37:05;10.30;99.90
26595;DHT22;14238;49.496;8.154;2023-05-14T03:39:30;10.30;99.90
26595;DHT22;14238;49.496;8.154;2023-05-14T03:41:56;10.30;99.90
26595;DHT22;14238;49.496;8.154;2023-05-14T03:44:23;10.40;99.90
26595;DHT22;14238;49.496;8.154;2023-05-14T03:46:49;10.40;99.90
26595;DHT22;14238;49.496;8.154;2023-05-14T03:49:14;10.30;99.90
26595;DHT22;14238;49.496;8.154;2023-05-14T03:51:40;10.20;99.90
26595;DHT22;14238;49.496;8.154;2023-05-14T03:54:06;10.30;99.90
26595;DHT22;14238;49.496;8.154;2023-05-14T03:56:31;10.40;99.90
26595;DHT22;14238;49.496;8.154;2023-05-14T03:58:57;10.40;99.90
26595;DHT22;14238;49.496;8.154;2023-05-14T04:01:22;10.40;99.90
26595;DHT22;14238;49.496;8.154;2023-05-14T04:03:48;10.40;99.90
26595;DHT22;14238;49.496;8.154;2023-05-14T04:06:13;10.40;99.90
26595;DHT22;14238;49.496;8.154;2023-05-14T04:08:39;10.50;99.90
26595;DHT22;14238;49.496;8.154;2023-05-14T04:11:05;10.50;99.90
26595;DHT22;14238;49.496;8.154;2023-05-14T04:13:30;10.60;99.90
26595;DHT22;14238;49.496;8.154;2023-05-14T04:15:56;10.60;99.90
26595;DHT22;14238;49.496;8.154;2023-05-14T04:18:21;10.70;99.90
26595;DHT22;14238;49.496;8.154;2023-05-14T04:20:47;10.80;99.90
26595;DHT22;14238;49.496;8.154;2023-05-14T04:23:12;10.80;99.90
26595;DHT22;14238;49.496;8.154;2023-05-14T04:25:38;10.80;99.90
26595;DHT22;14238;49.496;8.154;2023-05-14T04:28:03;10.80;99.90
26595;DHT22;14238;49.496;8.154;2023-05-14T04:30:29;10.90;99.90
26595;DHT22;14238;49.496;8.154;2023-05-14T04:32:54;10.90;99.90
26595;DHT22;14238;49.496;8.154;2023-05-14T04:35:20;10.90;99.90
26595;DHT22;14238;49.496;8.154;2023-05-14T04:37:46;10.90;99.90
26595;DHT22;14238;49.496;8.154;2023-05-14T04:40:13;11.00;99.90
26595;DHT22;14238;49.496;8.154;2023-05-14T04:42:41;11.00;99.90
26595;DHT22;14238;49.496;8.154;2023-05-14T04:45:07;11.00;99.90
26595;DHT22;14238;49.496;8.154;2023-05-14T04:47:33;11.10;99.90
26595;DHT22;14238;49.496;8.154;2023-05-14T04:49:58;11.20;99.90
26595;DHT22;14238;49.496;8.154;2023-05-14T04:52:24;11.20;99.90
26595;DHT22;14238;49.496;8.154;2023-05-14T04:54:50;11.30;99.90
26595;DHT22;14238;49.496;8.154;2023-05-14T04:57:15;11.40;99.90
26595;DHT22;14238;49.496;8.154;2023-05-14T04:59:41;11.50;99.90
26595;DHT22;14238;49.496;8.154;2023-05-14T05:02:07;11.60;99.90
26595;DHT22;14238;49.496;8.154;2023-05-14T05:04:32;11.70;99.90
26595;DHT22;14238;49.496;8.154;2023-05-14T05:06:58;11.80;99.90
26595;DHT22;14238;49.496;8.154;2023-05-14T05:09:23;11.90;99.90
26595;DHT22;14238;49.496;8.154;2023-05-14T05:11:49;12.00;99.90
26595;DHT22;14238;49.496;8.154;2023-05-14T05:14:14;12.00;99.90
26595;DHT22;14238;49.496;8.154;2023-05-14T05:16:40;12.00;99.90
26595;DHT22;14238;49.496;8.154;2023-05-14T05:19:05;12.00;99.90
26595;DHT22;14238;49.496;8.154;2023-05-14T05:21:31;12.00;99.90
26595;DHT22;14238;49.496;8.154;2023-05-14T05:23:56;12.00;99.90
26595;DHT22;14238;49.496;8.154;2023-05-14T05:26:23;12.10;99.90
26595;DHT22;14238;49.496;8.154;2023-05-14T05:28:48;12.10;99.90
26595;DHT22;14238;49.496;8.154;2023-05-14T05:31:14;12.00;99.90
26595;DHT22;14238;49.496;8.154;2023-05-14T05:33:40;12.00;99.90
26595;DHT22;14238;49.496;8.154;2023-05-14T05:36:06;12.10;99.90
26595;DHT22;14238;49.496;8.154;2023-05-14T05:38:32;12.10;99.90
26595;DHT22;14238;49.496;8.154;2023-05-14T05:40:57;12.10;99.90
26595;DHT22;14238;49.496;8.154;2023-05-14T05:43:23;12.10;99.90
26595;DHT22;14238;49.496;8.154;2023-05-14T05:45:48;12.20;99.90
26595;DHT22;14238;49.496;8.154;2023-05-14T05:48:14;12.20;99.90
26595;DHT22;14238;49.496;8.154;2023-05-14T05:50:39;12.10;99.90
26595;DHT22;14238;49.496;8.154;2023-05-14T05:53:05;12.20;99.90
26595;DHT22;14238;49.496;8.154;2023-05-14T05:55:30;12.30;99.90
26595;DHT22;14238;49.496;8.154;2023-05-14T05:57:56;12.40;99.90
26595;DHT22;14238;49.496;8.154;2023-05-14T06:00:21;12.40;99.90
26595;DHT22;14238;49.496;8.154;2023-05-14T06:02:48;12.40;99.90
26595;DHT22;14238;49.496;8.154;2023-05-14T06:05:13;12.40;99.90
26595;DHT22;14238;49.496;8.154;2023-05-14T06:07:39;12.30;99.90
26595;DHT22;14238;49.496;8.154;2023-05-14T06:10:05;12.20;99.90
26595;DHT22;14238;49.496;8.154;2023-05-14T06:12:31;12.10;99.90
26595;DHT22;14238;49.496;8.154;2023-05-14T06:14:56;12.20;99.90
26595;DHT22;14238;49.496;8.154;2023-05-14T06:17:23;12.30;99.90
26595;DHT22;14238;49.496;8.154;2023-05-14T06:19:49;12.40;99.90
26595;DHT22;14238;49.496;8.154;2023-05-14T06:22:15;12.40;99.90
26595;DHT22;14238;49.496;8.154;2023-05-14T06:24:41;12.40;99.90
26595;DHT22;14238;49.496;8.154;2023-05-14T06:27:06;12.40;99.90
26595;DHT22;14238;49.496;8.154;2023-05-14T06:29:32;12.40;99.90
26595;DHT22;14238;49.496;8.154;2023-05-14T06:32:01;12.40;99.90
26595;DHT22;14238;49.496;8.154;2023-05-14T06:34:27;12.40;99.90
26595;DHT22;14238;49.496;8.154;2023-05-14T06:36:52;12.50;99.90
26595;DHT22;14238;49.496;8.154;2023-05-14T06:39:18;12.50;99.90
26595;DHT22;14238;49.496;8.154;2023-05-14T06:41:43;12.50;99.90
26595;DHT22;14238;49.496;8.154;2023-05-14T06:44:09;12.50;99.90
26595;DHT22;14238;49.496;8.154;2023-05-14T06:46:35;12.60;99.90
26595;DHT22;14238;49.496;8.154;2023-05-14T06:49:01;12.60;99.90
26595;DHT22;14238;49.496;8.154;2023-05-14T06:51:26;12.70;99.90
26595;DHT22;14238;49.496;8.154;2023-05-14T06:53:54;12.70;99.90
26595;DHT22;14238;49.496;8.154;2023-05-14T06:56:20;12.80;99.90
26595;DHT22;14238;49.496;8.154;2023-05-14T06:58:46;12.80;99.90
26595;DHT22;14238;49.496;8.154;2023-05-14T07:01:12;13.00;99.90
26595;DHT22;14238;49.496;8.154;2023-05-14T07:03:38;13.10;99.90
26595;DHT22;14238;49.496;8.154;2023-05-14T07:06:03;13.20;99.90
26595;DHT22;14238;49.496;8.154;2023-05-14T07:08:29;13.20;99.90
26595;DHT22;14238;49.496;8.154;2023-05-14T07:10:54;13.30;99.90
26595;DHT22;14238;49.496;8.154;2023-05-14T07:13:21;13.50;99.90
26595;DHT22;14238;49.496;8.154;2023-05-14T07:15:47;13.50;99.90
26595;DHT22;14238;49.496;8.154;2023-05-14T07:18:12;13.60;99.90
26595;DHT22;14238;49.496;8.154;2023-05-14T07:20:38;13.60;99.90
26595;DHT22;14238;49.496;8.154;2023-05-14T07:23:03;13.70;99.90
26595;DHT22;14238;49.496;8.154;2023-05-14T07:25:29;13.70;99.90
26595;DHT22;14238;49.496;8.154;2023-05-14T07:27:55;13.80;99.90
26595;DHT22;14238;49.496;8.154;2023-05-14T07:30:20;13.90;99.90
26595;DHT22;14238;49.496;8.154;2023-05-14T07:32:46;13.80;99.90
26595;DHT22;14238;49.496;8.154;2023-05-14T07:35:11;13.80;99.90
26595;DHT22;14238;49.496;8.154;2023-05-14T07:37:37;13.80;99.90
26595;DHT22;14238;49.496;8.154;2023-05-14T07:40:03;13.90;99.90
26595;DHT22;14238;49.496;8.154;2023-05-14T07:42:28;13.90;99.90
26595;DHT22;14238;49.496;8.154;2023-05-14T07:44:54;14.00;99.90
26595;DHT22;14238;49.496;8.154;2023-05-14T07:47:19;14.00;99.90
26595;DHT22;14238;49.496;8.154;2023-05-14T07:49:45;14.10;99.90
26595;DHT22;14238;49.496;8.154;2023-05-14T07:52:10;14.10;99.90
26595;DHT22;14238;49.496;8.154;2023-05-14T07:54:36;14.30;99.90
26595;DHT22;14238;49.496;8.154;2023-05-14T07:57:01;14.40;99.90
26595;DHT22;14238;49.496;8.154;2023-05-14T07:59:27;14.60;99.90
26595;DHT22;14238;49.496;8.154;2023-05-14T08:01:53;14.70;99.90
26595;DHT22;14238;49.496;8.154;2023-05-14T08:04:18;14.80;99.90
26595;DHT22;14238;49.496;8.154;2023-05-14T08:06:44;14.80;99.90
26595;DHT22;14238;49.496;8.154;2023-05-14T08:09:10;14.90;99.90
26595;DHT22;14238;49.496;8.154;2023-05-14T08:11:35;15.00;99.90
26595;DHT22;14238;49.496;8.154;2023-05-14T08:14:01;15.10;99.90
26595;DHT22;14238;49.496;8.154;2023-05-14T08:16:26;15.20;99.90
26595;DHT22;14238;49.496;8.154;2023-05-14T08:18:52;15.30;99.90
26595;DHT22;14238;49.496;8.154;2023-05-14T08:21:17;15.50;99.90
26595;DHT22;14238;49.496;8.154;2023-05-14T08:23:43;15.80;99.90
26595;DHT22;14238;49.496;8.154;2023-05-14T08:26:08;15.90;99.90
26595;DHT22;14238;49.496;8.154;2023-05-14T08:28:34;16.10;99.90
26595;DHT22;14238;49.496;8.154;2023-05-14T08:30:59;16.30;99.90
26595;DHT22;14238;49.496;8.154;2023-05-14T08:33:25;16.60;99.90
26595;DHT22;14238;49.496;8.154;2023-05-14T08:35:52;16.70;99.90
26595;DHT22;14238;49.496;8.154;2023-05-14T08:38:18;16.80;99.90
26595;DHT22;14238;49.496;8.154;2023-05-14T08:40:56;16.90;99.90
26595;DHT22;14238;49.496;8.154;2023-05-14T08:43:29;16.80;99.90
26595;DHT22;14238;49.496;8.154;2023-05-14T08:45:57;17.10;99.90
26595;DHT22;14238;49.496;8.154;2023-05-14T08:48:27;17.30;99.90
26595;DHT22;14238;49.496;8.154;2023-05-14T08:50:53;17.50;99.90
26595;DHT22;14238;49.496;8.154;2023-05-14T08:53:19;17.60;99.90
26595;DHT22;14238;49.496;8.154;2023-05-14T08:55:45;17.60;99.90
26595;DHT22;14238;49.496;8.154;2023-05-14T08:58:12;17.60;99.90
26595;DHT22;14238;49.496;8.154;2023-05-14T09:00:38;17.90;99.90
26595;DHT22;14238;49.496;8.154;2023-05-14T09:03:04;18.40;99.90
26595;DHT22;14238;49.496;8.154;2023-05-14T09:05:31;18.20;99.90
26595;DHT22;14238;49.496;8.154;2023-05-14T09:07:58;18.00;99.90
26595;DHT22;14238;49.496;8.154;2023-05-14T09:10:23;18.20;99.90
26595;DHT22;14238;49.496;8.154;2023-05-14T09:12:49;18.70;99.90
26595;DHT22;14238;49.496;8.154;2023-05-14T09:15:16;19.00;99.90
26595;DHT22;14238;49.496;8.154;2023-05-14T09:17:42;19.00;99.90
26595;DHT22;14238;49.496;8.154;2023-05-14T09:20:08;18.70;99.90
26595;DHT22;14238;49.496;8.154;2023-05-14T09:22:37;18.70;99.90
26595;DHT22;14238;49.496;8.154;2023-05-14T09:25:08;19.00;99.90
26595;DHT22;14238;49.496;8.154;2023-05-14T09:27:34;18.90;99.90
26595;DHT22;14238;49.496;8.154;2023-05-14T09:30:11;18.40;99.90
26595;DHT22;14238;49.496;8.154;2023-05-14T09:32:38;18.50;99.90
26595;DHT22;14238;49.496;8.154;2023-05-14T09:35:17;19.10;99.90
26595;DHT22;14238;49.496;8.154;2023-05-14T09:37:48;19.10;99.90
26595;DHT22;14238;49.496;8.154;2023-05-14T09:40:14;19.30;99.90
26595;DHT22;14238;49.496;8.154;2023-05-14T09:42:40;19.60;99.90
26595;DHT22;14238;49.496;8.154;2023-05-14T09:45:07;19.70;99.90
26595;DHT22;14238;49.496;8.154;2023-05-14T09:47:33;20.10;99.90
26595;DHT22;14238;49.496;8.154;2023-05-14T09:49:59;20.40;99.90
26595;DHT22;14238;49.496;8.154;2023-05-14T09:52:25;20.20;99.90
26595;DHT22;14238;49.496;8.154;2023-05-14T09:54:52;20.20;99.90
26595;DHT22;14238;49.496;8.154;2023-05-14T09:57:18;20.10;99.90
26595;DHT22;14238;49.496;8.154;2023-05-14T09:59:44;20.20;99.90
26595;DHT22;14238;49.496;8.154;2023-05-14T10:02:33;20.20;99.90
26595;DHT22;14238;49.496;8.154;2023-05-14T10:05:03;20.80;99.90
26595;DHT22;14238;49.496;8.154;2023-05-14T10:07:35;20.30;99.90
26595;DHT22;14238;49.496;8.154;2023-05-14T10:10:02;20.10;99.90
26595;DHT22;14238;49.496;8.154;2023-05-14T10:12:36;19.70;99.90
26595;DHT22;14238;49.496;8.154;2023-05-14T10:15:11;19.50;99.90
26595;DHT22;14238;49.496;8.154;2023-05-14T10:17:43;18.70;99.90
26595;DHT22;14238;49.496;8.154;2023-05-14T10:20:14;18.60;99.90
26595;DHT22;14238;49.496;8.154;2023-05-14T10:22:41;19.00;99.90
26595;DHT22;14238;49.496;8.154;2023-05-14T10:25:07;19.00;99.90
26595;DHT22;14238;49.496;8.154;2023-05-14T10:27:33;18.50;99.90
26595;DHT22;14238;49.496;8.154;2023-05-14T10:29:58;18.10;99.90
26595;DHT22;14238;49.496;8.154;2023-05-14T10:32:24;18.00;99.90
26595;DHT22;14238;49.496;8.154;2023-05-14T10:34:52;18.00;99.90
26595;DHT22;14238;49.496;8.154;2023-05-14T10:37:26;18.10;99.90
26595;DHT22;14238;49.496;8.154;2023-05-14T10:39:56;18.30;99.90
26595;DHT22;14238;49.496;8.154;2023-05-14T10:42:26;18.40;99.90
26595;DHT22;14238;49.496;8.154;2023-05-14T10:44:57;18.40;99.90
26595;DHT22;14238;49.496;8.154;2023-05-14T10:47:26;18.30;99.90
26595;DHT22;14238;49.496;8.154;2023-05-14T10:50:02;17.90;99.90
26595;DHT22;14238;49.496;8.154;2023-05-14T10:52:29;17.80;99.90
26595;DHT22;14238;49.496;8.154;2023-05-14T10:54:59;17.80;99.90
26595;DHT22;14238;49.496;8.154;2023-05-14T10:57:30;17.80;99.90
26595;DHT22;14238;49.496;8.154;2023-05-14T10:59:58;17.80;99.90
26595;DHT22;14238;49.496;8.154;2023-05-14T11:02:26;17.80;99.90
26595;DHT22;14238;49.496;8.154;2023-05-14T11:04:56;18.00;99.90
26595;DHT22;14238;49.496;8.154;2023-05-14T11:07:28;18.10;99.90
26595;DHT22;14238;49.496;8.154;2023-05-14T11:10:15;18.00;99.90
26595;DHT22;14238;49.496;8.154;2023-05-14T11:12:42;18.00;99.90
26595;DHT22;14238;49.496;8.154;2023-05-14T11:15:13;17.90;99.90
26595;DHT22;14238;49.496;8.154;2023-05-14T11:17:41;17.90;99.90
26595;DHT22;14238;49.496;8.154;2023-05-14T11:20:08;17.70;99.90
26595;DHT22;14238;49.496;8.154;2023-05-14T11:22:35;17.60;99.90
26595;DHT22;14238;49.496;8.154;2023-05-14T11:25:00;17.60;99.90
26595;DHT22;14238;49.496;8.154;2023-05-14T11:27:26;17.40;99.90
26595;DHT22;14238;49.496;8.154;2023-05-14T11:29:52;17.50;99.90
26595;DHT22;14238;49.496;8.154;2023-05-14T11:32:18;17.50;99.90
26595;DHT22;14238;49.496;8.154;2023-05-14T11:34:44;17.50;99.90
26595;DHT22;14238;49.496;8.154;2023-05-14T11:37:11;17.50;99.90
26595;DHT22;14238;49.496;8.154;2023-05-14T11:39:37;17.60;99.90
26595;DHT22;14238;49.496;8.154;2023-05-14T11:42:12;17.80;99.90
26595;DHT22;14238;49.496;8.154;2023-05-14T11:44:42;18.00;99.90
26595;DHT22;14238;49.496;8.154;2023-05-14T11:47:10;18.10;99.90
26595;DHT22;14238;49.496;8.154;2023-05-14T11:49:36;18.20;99.90
26595;DHT22;14238;49.496;8.154;2023-05-14T11:52:06;18.10;99.90
26595;DHT22;14238;49.496;8.154;2023-05-14T11:54:33;18.50;99.90
26595;DHT22;14238;49.496;8.154;2023-05-14T11:57:01;18.50;99.90
26595;DHT22;14238;49.496;8.154;2023-05-14T11:59:28;18.40;99.90
26595;DHT22;14238;49.496;8.154;2023-05-14T12:01:55;18.50;99.90
26595;DHT22;14238;49.496;8.154;2023-05-14T12:04:21;18.50;99.90
26595;DHT22;14238;49.496;8.154;2023-05-14T12:06:50;18.30;99.90
26595;DHT22;14238;49.496;8.154;2023-05-14T12:09:20;18.10;99.90
26595;DHT22;14238;49.496;8.154;2023-05-14T12:11:47;18.10;99.90
26595;DHT22;14238;49.496;8.154;2023-05-14T12:14:17;18.20;99.90
26595;DHT22;14238;49.496;8.154;2023-05-14T12:16:44;18.10;99.90
26595;DHT22;14238;49.496;8.154;2023-05-14T12:19:10;18.40;99.90
26595;DHT22;14238;49.496;8.154;2023-05-14T12:21:37;18.30;99.90
26595;DHT22;14238;49.496;8.154;2023-05-14T12:24:03;18.50;99.90
26595;DHT22;14238;49.496;8.154;2023-05-14T12:26:32;18.70;99.90
26595;DHT22;14238;49.496;8.154;2023-05-14T12:29:02;18.90;99.90
26595;DHT22;14238;49.496;8.154;2023-05-14T12:31:31;19.10;99.90
26595;DHT22;14238;49.496;8.154;2023-05-14T12:33:57;19.20;99.90
26595;DHT22;14238;49.496;8.154;2023-05-14T12:36:23;19.40;99.90
26595;DHT22;14238;49.496;8.154;2023-05-14T12:38:50;19.40;99.90
26595;DHT22;14238;49.496;8.154;2023-05-14T12:41:16;19.50;99.90
26595;DHT22;14238;49.496;8.154;2023-05-14T12:43:43;19.50;99.90
26595;DHT22;14238;49.496;8.154;2023-05-14T12:46:08;19.50;99.90
26595;DHT22;14238;49.496;8.154;2023-05-14T12:48:35;19.60;99.90
26595;DHT22;14238;49.496;8.154;2023-05-14T12:51:00;19.80;99.90
26595;DHT22;14238;49.496;8.154;2023-05-14T12:53:26;20.00;99.90
26595;DHT22;14238;49.496;8.154;2023-05-14T12:55:51;19.90;99.90
26595;DHT22;14238;49.496;8.154;2023-05-14T12:58:17;19.90;99.90
26595;DHT22;14238;49.496;8.154;2023-05-14T13:00:42;20.70;99.90
26595;DHT22;14238;49.496;8.154;2023-05-14T13:03:08;21.50;99.90
26595;DHT22;14238;49.496;8.154;2023-05-14T13:05:33;21.60;99.90
26595;DHT22;14238;49.496;8.154;2023-05-14T13:08:00;21.90;99.90
26595;DHT22;14238;49.496;8.154;2023-05-14T13:10:28;22.70;99.90
26595;DHT22;14238;49.496;8.154;2023-05-14T13:12:53;22.50;99.90
26595;DHT22;14238;49.496;8.154;2023-05-14T13:15:21;22.30;99.90
26595;DHT22;14238;49.496;8.154;2023-05-14T13:17:46;22.30;99.90
26595;DHT22;14238;49.496;8.154;2023-05-14T13:20:12;22.40;99.90
26595;DHT22;14238;49.496;8.154;2023-05-14T13:22:38;22.40;99.90
26595;DHT22;14238;49.496;8.154;2023-05-14T13:25:03;22.90;99.90
26595;DHT22;14238;49.496;8.154;2023-05-14T13:27:29;23.00;99.90
26595;DHT22;14238;49.496;8.154;2023-05-14T13:29:55;23.10;99.90
26595;DHT22;14238;49.496;8.154;2023-05-14T13:32:21;22.80;99.90
26595;DHT22;14238;49.496;8.154;2023-05-14T13:34:46;22.80;99.90
26595;DHT22;14238;49.496;8.154;2023-05-14T13:37:12;22.70;99.90
26595;DHT22;14238;49.496;8.154;2023-05-14T13:39:37;22.90;99.90
26595;DHT22;14238;49.496;8.154;2023-05-14T13:42:03;22.70;99.90
26595;DHT22;14238;49.496;8.154;2023-05-14T13:44:29;22.20;99.90
26595;DHT22;14238;49.496;8.154;2023-05-14T13:46:55;21.70;99.90
26595;DHT22;14238;49.496;8.154;2023-05-14T13:49:20;22.10;99.90
26595;DHT22;14238;49.496;8.154;2023-05-14T13:51:46;22.80;99.90
26595;DHT22;14238;49.496;8.154;2023-05-14T13:54:11;22.90;99.90
26595;DHT22;14238;49.496;8.154;2023-05-14T13:56:37;21.70;99.90
26595;DHT22;14238;49.496;8.154;2023-05-14T13:59:02;21.70;99.90
26595;DHT22;14238;49.496;8.154;2023-05-14T14:01:28;22.30;99.90
26595;DHT22;14238;49.496;8.154;2023-05-14T14:03:55;22.70;99.90
26595;DHT22;14238;49.496;8.154;2023-05-14T14:06:20;22.90;98.90
26595;DHT22;14238;49.496;8.154;2023-05-14T14:08:46;22.50;99.90
26595;DHT22;14238;49.496;8.154;2023-05-14T14:11:11;22.10;99.90
26595;DHT22;14238;49.496;8.154;2023-05-14T14:13:38;21.80;99.90
26595;DHT22;14238;49.496;8.154;2023-05-14T14:16:05;21.60;99.90
26595;DHT22;14238;49.496;8.154;2023-05-14T14:18:31;21.10;99.90
26595;DHT22;14238;49.496;8.154;2023-05-14T14:20:57;21.30;99.90
26595;DHT22;14238;49.496;8.154;2023-05-14T14:23:22;21.70;99.90
26595;DHT22;14238;49.496;8.154;2023-05-14T14:25:48;22.00;99.90
26595;DHT22;14238;49.496;8.154;2023-05-14T14:28:14;22.60;99.70
26595;DHT22;14238;49.496;8.154;2023-05-14T14:30:39;22.60;99.90
26595;DHT22;14238;49.496;8.154;2023-05-14T14:33:05;22.80;99.90
26595;DHT22;14238;49.496;8.154;2023-05-14T14:35:31;22.90;99.10
26595;DHT22;14238;49.496;8.154;2023-05-14T14:37:57;22.70;99.30
26595;DHT22;14238;49.496;8.154;2023-05-14T14:40:23;23.10;99.80
26595;DHT22;14238;49.496;8.154;2023-05-14T14:42:48;23.30;99.30
26595;DHT22;14238;49.496;8.154;2023-05-14T14:45:14;23.50;98.90
26595;DHT22;14238;49.496;8.154;2023-05-14T14:47:45;22.90;98.30
26595;DHT22;14238;49.496;8.154;2023-05-14T14:50:13;22.50;99.50
26595;DHT22;14238;49.496;8.154;2023-05-14T14:52:40;22.00;99.40
26595;DHT22;14238;49.496;8.154;2023-05-14T14:55:08;21.00;99.90
26595;DHT22;14238;49.496;8.154;2023-05-14T14:57:34;20.60;99.90
26595;DHT22;14238;49.496;8.154;2023-05-14T14:59:59;20.40;99.90
26595;DHT22;14238;49.496;8.154;2023-05-14T15:02:25;20.50;99.90
26595;DHT22;14238;49.496;8.154;2023-05-14T15:04:52;20.10;99.90
26595;DHT22;14238;49.496;8.154;2023-05-14T15:07:18;20.00;99.90
26595;DHT22;14238;49.496;8.154;2023-05-14T15:09:44;20.30;99.90
26595;DHT22;14238;49.496;8.154;2023-05-14T15:12:10;21.10;99.90
26595;DHT22;14238;49.496;8.154;2023-05-14T15:14:36;20.70;99.90
26595;DHT22;14238;49.496;8.154;2023-05-14T15:17:02;20.40;99.90
26595;DHT22;14238;49.496;8.154;2023-05-14T15:19:28;20.30;99.90
26595;DHT22;14238;49.496;8.154;2023-05-14T15:21:55;20.60;99.90
26595;DHT22;14238;49.496;8.154;2023-05-14T15:24:20;20.90;99.90
26595;DHT22;14238;49.496;8.154;2023-05-14T15:26:48;21.20;99.90
26595;DHT22;14238;49.496;8.154;2023-05-14T15:29:13;21.30;99.80
26595;DHT22;14238;49.496;8.154;2023-05-14T15:31:39;21.60;99.90